createdAt,value
2019-04-05T00:01:32.057Z,13.50
2019-04-05T00:04:02.767Z,16.03
2019-04-05T00:06:33.781Z,15.03
2019-04-05T00:09:06.593Z,15.87
2019-04-05T00:11:37.465Z,12.03
2019-04-05T00:14:08.560Z,14.67
2019-04-05T00:16:41.058Z,12.67
2019-04-05T00:19:11.885Z,16.30
2019-04-05T00:21:42.606Z,16.17
2019-04-05T00:24:13.556Z,18.17
2019-04-05T00:26:44.655Z,15.57
2019-04-05T00:29:17.510Z,17.63
2019-04-05T00:31:49.675Z,13.10
2019-04-05T00:34:22.595Z,17.07
2019-04-05T00:36:53.836Z,16.77
2019-04-05T00:39:23.618Z,15.77
2019-04-05T00:41:54.711Z,16.93
2019-04-05T00:44:25.497Z,16.90
2019-04-05T00:46:55.237Z,12.63
2019-04-05T00:49:26.279Z,17.37
2019-04-05T00:51:56.202Z,16.77
2019-04-05T00:54:26.042Z,17.20
2019-04-05T00:56:55.754Z,13.13
2019-04-05T00:59:26.825Z,18.00
2019-04-05T01:01:58.000Z,19.43
2019-04-05T01:04:29.133Z,16.83
2019-04-05T01:07:00.389Z,14.17
2019-04-05T01:09:32.659Z,17.60
2019-04-05T01:12:04.969Z,17.53
2019-04-05T01:14:36.836Z,17.40
2019-04-05T01:17:07.545Z,16.97
2019-04-05T01:19:45.035Z,16.90
2019-04-05T01:22:16.325Z,16.83
2019-04-05T01:24:46.264Z,20.87
2019-04-05T01:27:16.496Z,21.77
2019-04-05T01:29:46.333Z,17.87
2019-04-05T01:32:16.421Z,16.80
2019-04-05T01:34:46.317Z,19.60
2019-04-05T01:37:17.054Z,20.83
2019-04-05T01:39:47.214Z,18.67
2019-04-05T01:42:19.919Z,15.90
2019-04-05T01:44:52.014Z,19.90
2019-04-05T01:47:22.190Z,19.43
2019-04-05T01:49:53.349Z,15.13
2019-04-05T01:52:24.086Z,19.37
2019-04-05T01:54:58.793Z,18.23
2019-04-05T01:57:29.565Z,17.30
2019-04-05T01:59:59.254Z,19.57
2019-04-05T02:02:29.989Z,18.80
2019-04-05T02:05:01.078Z,19.80
2019-04-05T02:07:32.377Z,18.27
2019-04-05T02:10:03.196Z,14.37
2019-04-05T02:12:34.196Z,19.23
2019-04-05T02:15:11.097Z,19.23
2019-04-05T02:17:40.969Z,20.13
2019-04-05T02:20:14.218Z,20.63
2019-04-05T02:22:46.186Z,18.33
2019-04-05T02:25:16.387Z,20.97
2019-04-05T02:27:47.506Z,21.53
2019-04-05T02:30:20.533Z,22.37
2019-04-05T02:32:51.937Z,20.87
2019-04-05T02:35:21.855Z,26.40
2019-04-05T02:37:52.706Z,19.13
2019-04-05T02:40:23.190Z,25.70
2019-04-05T02:42:54.937Z,18.07
2019-04-05T02:45:27.755Z,25.40
2019-04-05T02:48:02.731Z,23.80
2019-04-05T02:50:35.465Z,22.40
2019-04-05T02:53:07.848Z,19.90
2019-04-05T02:55:40.437Z,22.67
2019-04-05T02:58:11.900Z,22.73
2019-04-05T03:00:43.396Z,27.00
2019-04-05T03:03:15.242Z,20.43
2019-04-05T03:05:46.202Z,21.43
2019-04-05T03:08:18.205Z,22.17
2019-04-05T03:10:50.635Z,16.37
2019-04-05T03:13:21.733Z,21.73
2019-04-05T03:15:54.589Z,21.00
2019-04-05T03:18:27.057Z,22.13
2019-04-05T03:21:01.137Z,22.40
2019-04-05T03:23:33.290Z,23.20
2019-04-05T03:26:07.383Z,20.53
2019-04-05T03:28:41.174Z,17.40
2019-04-05T03:31:11.109Z,25.27
2019-04-05T03:33:40.907Z,23.40
2019-04-05T03:36:12.230Z,21.93
2019-04-05T03:38:43.138Z,23.17
2019-04-05T03:41:16.918Z,25.93
2019-04-05T03:43:49.487Z,18.77
2019-04-05T03:46:19.807Z,23.10
2019-04-05T03:48:52.626Z,24.87
2019-04-05T03:51:23.351Z,24.37
2019-04-05T03:53:53.100Z,26.57
2019-04-05T03:56:24.157Z,25.87
2019-04-05T03:58:56.233Z,24.10
2019-04-05T04:01:27.365Z,24.90
2019-04-05T04:03:57.225Z,25.67
2019-04-05T04:06:28.202Z,26.23
2019-04-05T04:08:59.314Z,18.47
2019-04-05T04:11:30.012Z,26.63
2019-04-05T04:14:01.657Z,20.23
2019-04-05T04:16:31.916Z,25.80
2019-04-05T04:19:02.678Z,18.50
2019-04-05T04:21:45.760Z,24.00
2019-04-05T04:24:16.477Z,22.93
2019-04-05T04:26:47.301Z,28.00
2019-04-05T04:29:18.971Z,26.77
2019-04-05T04:31:51.019Z,25.83
2019-04-05T04:34:22.135Z,19.97
2019-04-05T04:36:52.962Z,23.40
2019-04-05T04:39:24.822Z,26.00
2019-04-05T04:41:58.088Z,21.60
2019-04-05T04:44:30.274Z,23.13
2019-04-05T04:47:03.086Z,27.10
2019-04-05T04:49:35.797Z,28.40
2019-04-05T04:52:07.116Z,26.63
2019-04-05T04:54:37.186Z,27.20
2019-04-05T04:57:10.670Z,21.43
2019-04-05T04:59:41.453Z,24.20
2019-04-05T05:02:12.405Z,19.63
2019-04-05T05:04:44.441Z,25.00
2019-04-05T05:07:14.449Z,26.67
2019-04-05T05:09:44.441Z,22.43
2019-04-05T05:12:15.077Z,27.83
2019-04-05T05:14:46.801Z,21.33
2019-04-05T05:17:16.489Z,26.93
2019-04-05T05:19:46.674Z,21.23
2019-04-05T05:22:16.191Z,23.73
2019-04-05T05:24:48.622Z,25.63
2019-04-05T05:27:18.529Z,21.97
2019-04-05T05:29:51.246Z,24.50
2019-04-05T05:32:22.714Z,29.77
2019-04-05T05:35:01.879Z,27.87
2019-04-05T05:37:27.291Z,22.80
2019-04-05T05:39:56.829Z,25.67
2019-04-05T05:42:26.525Z,27.07
2019-04-05T05:44:56.385Z,27.50
2019-04-05T05:47:26.157Z,27.30
2019-04-05T05:49:58.053Z,22.73
2019-04-05T05:52:28.317Z,27.63
2019-04-05T05:54:58.508Z,27.97
2019-04-05T05:57:29.268Z,30.67
2019-04-05T06:00:01.285Z,27.60
2019-04-05T06:02:31.216Z,26.17
2019-04-05T06:05:01.288Z,27.80
2019-04-05T06:07:32.146Z,27.70
2019-04-05T06:10:03.272Z,27.80
2019-04-05T06:12:34.513Z,27.83
2019-04-05T06:15:05.622Z,24.20
2019-04-05T06:17:34.618Z,28.57
2019-04-05T06:20:07.334Z,32.07
2019-04-05T06:22:37.280Z,23.37
2019-04-05T06:25:08.256Z,29.00
2019-04-05T06:27:39.262Z,21.93
2019-04-05T06:30:12.692Z,29.10
2019-04-05T06:32:43.373Z,31.70
2019-04-05T06:35:16.207Z,29.57
2019-04-05T06:37:46.977Z,28.87
2019-04-05T06:40:17.161Z,20.57
2019-04-05T06:42:48.032Z,27.37
2019-04-05T06:45:18.330Z,24.30
2019-04-05T06:47:52.005Z,26.63
2019-04-05T06:50:22.169Z,27.47
2019-04-05T06:52:53.294Z,25.47
2019-04-05T06:55:26.933Z,24.73
2019-04-05T06:57:59.236Z,24.13
2019-04-05T07:00:31.650Z,29.10
2019-04-05T07:03:02.749Z,24.47
2019-04-05T07:05:36.102Z,20.97
2019-04-05T07:08:07.318Z,27.40
2019-04-05T07:10:38.168Z,27.80
2019-04-05T07:13:09.504Z,25.33
2019-04-05T07:15:39.401Z,29.37
2019-04-05T07:18:10.645Z,16.47
2019-04-05T07:20:42.430Z,54.17
2019-04-05T07:23:12.178Z,20.70
2019-04-05T07:25:46.123Z,21.13
2019-04-05T07:28:16.261Z,18.33
2019-04-05T07:30:49.238Z,17.23
2019-04-05T07:33:20.361Z,19.33
2019-04-05T07:35:51.342Z,19.77
2019-04-05T07:38:22.534Z,18.93
2019-04-05T07:40:52.437Z,20.50
2019-04-05T07:43:22.517Z,20.73
2019-04-05T07:45:54.404Z,22.37
2019-04-05T07:48:24.176Z,22.10
2019-04-05T07:50:54.492Z,22.77
2019-04-05T07:53:25.218Z,23.00
2019-04-05T07:55:54.965Z,16.43
2019-04-05T07:58:26.446Z,19.97
2019-04-05T08:00:57.464Z,23.47
2019-04-05T08:03:28.217Z,17.13
2019-04-05T08:05:58.361Z,20.27
2019-04-05T08:08:34.848Z,20.57
2019-04-05T08:11:06.585Z,23.60
2019-04-05T08:13:39.982Z,22.50
2019-04-05T08:16:10.217Z,22.90
2019-04-05T08:18:41.257Z,23.07
2019-04-05T08:21:11.934Z,20.83
2019-04-05T08:23:42.588Z,25.57
2019-04-05T08:26:14.362Z,23.70
2019-04-05T08:28:45.209Z,24.73
2019-04-05T08:31:15.918Z,21.93
2019-04-05T08:33:46.951Z,24.43
2019-04-05T08:36:16.392Z,24.20
2019-04-05T08:38:47.561Z,20.87
2019-04-05T08:41:18.393Z,25.80
2019-04-05T08:43:48.445Z,23.33
2019-04-05T08:46:19.385Z,19.93
2019-04-05T08:48:52.332Z,23.33
2019-04-05T08:51:22.900Z,23.97
2019-04-05T08:53:53.617Z,24.13
2019-04-05T08:56:26.062Z,26.53
2019-04-05T08:58:57.063Z,24.40
2019-04-05T09:01:27.040Z,25.90
2019-04-05T09:03:58.545Z,24.60
2019-04-05T09:06:29.302Z,18.10
2019-04-05T09:09:00.358Z,23.93
2019-04-05T09:11:40.442Z,21.70
2019-04-05T09:14:10.633Z,21.67
2019-04-05T09:16:40.537Z,23.43
2019-04-05T09:19:23.100Z,17.93
2019-04-05T09:21:43.574Z,24.27
2019-04-05T09:24:13.334Z,20.83
2019-04-05T09:26:43.121Z,19.07
2019-04-05T09:29:12.886Z,16.67
2019-04-05T09:31:43.503Z,20.40
2019-04-05T09:34:14.245Z,16.90
2019-04-05T09:36:45.332Z,19.87
2019-04-05T09:39:15.941Z,20.23
2019-04-05T09:41:47.234Z,20.97
2019-04-05T09:44:17.101Z,22.60
2019-04-05T09:46:51.006Z,18.13
2019-04-05T09:49:21.025Z,22.57
2019-04-05T09:51:52.675Z,20.93
2019-04-05T09:54:23.421Z,21.83
2019-04-05T09:56:53.257Z,15.87
2019-04-05T09:59:24.045Z,18.20
2019-04-05T10:01:54.205Z,16.07
2019-04-05T10:04:25.066Z,20.70
2019-04-05T10:06:56.089Z,19.23
2019-04-05T10:09:27.328Z,20.03
2019-04-05T10:11:59.085Z,18.43
2019-04-05T10:14:28.658Z,24.40
2019-04-05T10:17:00.505Z,23.87
2019-04-05T10:19:31.952Z,21.27
2019-04-05T10:22:03.115Z,26.20
2019-04-05T10:24:33.446Z,25.27
2019-04-05T10:27:04.118Z,23.20
2019-04-05T10:29:35.607Z,22.37
2019-04-05T10:32:06.281Z,18.20
2019-04-05T10:34:36.362Z,22.23
2019-04-05T10:37:09.231Z,21.03
2019-04-05T10:39:40.881Z,20.53
2019-04-05T10:42:22.631Z,20.23
2019-04-05T10:44:52.521Z,20.10
2019-04-05T10:47:23.571Z,23.00
2019-04-05T10:50:02.911Z,22.50
2019-04-05T10:52:27.191Z,15.90
2019-04-05T10:54:58.042Z,20.53
2019-04-05T10:57:31.053Z,20.37
2019-04-05T11:00:01.213Z,18.23
2019-04-05T11:02:35.405Z,20.40
2019-04-05T11:05:08.713Z,17.23
2019-04-05T11:07:39.589Z,19.03
2019-04-05T11:10:09.586Z,14.33
2019-04-05T11:12:40.854Z,13.00
2019-04-05T11:15:14.953Z,15.13
2019-04-05T11:17:46.477Z,14.67
2019-04-05T11:20:21.766Z,13.77
2019-04-05T11:22:51.426Z,12.37
2019-04-05T11:25:22.602Z,14.10
2019-04-05T11:27:53.369Z,14.83
2019-04-05T11:30:27.035Z,16.87
2019-04-05T11:32:57.277Z,15.10
2019-04-05T11:35:27.575Z,12.33
2019-04-05T11:37:58.736Z,11.83
2019-04-05T11:40:31.437Z,11.83
2019-04-05T11:43:04.170Z,13.93
2019-04-05T11:45:36.293Z,15.77
2019-04-05T11:48:10.602Z,15.53
2019-04-05T11:50:41.429Z,13.93
2019-04-05T11:53:12.112Z,11.83
2019-04-05T11:55:46.183Z,10.07
2019-04-05T11:58:14.207Z,13.60
2019-04-05T12:00:57.768Z,13.13
2019-04-05T12:03:31.801Z,14.00
2019-04-05T12:06:03.503Z,13.17
2019-04-05T12:08:34.217Z,11.10
2019-04-05T12:11:06.250Z,12.97
2019-04-05T12:13:38.444Z,12.93
2019-04-05T12:16:10.571Z,12.47
2019-04-05T12:18:44.238Z,15.27
2019-04-05T12:21:15.545Z,12.47
2019-04-05T12:23:46.775Z,15.60
2019-04-05T12:26:18.513Z,12.47
2019-04-05T12:28:48.306Z,14.80
2019-04-05T12:31:18.090Z,12.60
2019-04-05T12:34:00.478Z,14.87
2019-04-05T12:36:31.431Z,12.00
2019-04-05T12:39:04.056Z,14.07
2019-04-05T12:41:34.759Z,16.00
2019-04-05T12:44:05.454Z,14.97
2019-04-05T12:46:36.288Z,14.30
2019-04-05T12:49:07.030Z,12.97
2019-04-05T12:51:38.435Z,16.07
2019-04-05T12:54:09.166Z,12.00
2019-04-05T12:56:40.112Z,14.53
2019-04-05T12:59:11.229Z,13.10
2019-04-05T13:01:43.550Z,14.20
2019-04-05T13:04:15.208Z,12.90
2019-04-05T13:06:45.483Z,16.50
2019-04-05T13:09:17.484Z,12.77
2019-04-05T13:11:48.392Z,16.57
2019-04-05T13:14:19.330Z,17.70
2019-04-05T13:16:49.638Z,12.53
2019-04-05T13:19:21.584Z,16.37
2019-04-05T13:21:51.373Z,12.37
2019-04-05T13:24:22.013Z,17.83
2019-04-05T13:26:52.993Z,16.10
2019-04-05T13:29:23.203Z,16.50
2019-04-05T13:31:54.321Z,16.53
2019-04-05T13:34:25.993Z,17.27
2019-04-05T13:36:59.269Z,18.53
2019-04-05T13:39:30.695Z,16.57
2019-04-05T13:42:03.505Z,15.13
2019-04-05T13:44:33.480Z,15.57
2019-04-05T13:47:08.080Z,15.93
2019-04-05T13:49:40.639Z,16.83
2019-04-05T13:52:13.875Z,15.07
2019-04-05T13:54:44.651Z,19.87
2019-04-05T13:57:17.036Z,19.73
2019-04-05T13:59:48.650Z,16.60
2019-04-05T14:02:21.178Z,18.93
2019-04-05T14:04:53.846Z,15.30
2019-04-05T14:07:25.745Z,19.40
2019-04-05T14:09:56.833Z,18.27
2019-04-05T14:12:27.675Z,16.13
2019-04-05T14:15:01.578Z,22.93
2019-04-05T14:17:31.925Z,17.63
2019-04-05T14:20:09.057Z,22.77
2019-04-05T14:22:40.470Z,17.97
2019-04-05T14:25:12.967Z,21.87
2019-04-05T14:27:43.009Z,18.37
2019-04-05T14:30:15.441Z,25.70
2019-04-05T14:32:45.633Z,19.63
2019-04-05T14:35:16.978Z,25.00
2019-04-05T14:37:48.053Z,22.50
2019-04-05T14:40:19.014Z,25.97
2019-04-05T14:42:50.251Z,21.53
2019-04-05T14:45:21.231Z,23.80
2019-04-05T14:47:52.175Z,20.50
2019-04-05T14:50:22.688Z,23.33
2019-04-05T14:52:53.436Z,19.67
2019-04-05T14:55:24.167Z,23.07
2019-04-05T14:57:54.927Z,18.93
2019-04-05T15:00:25.065Z,25.77
2019-04-05T15:02:56.062Z,21.87
2019-04-05T15:05:28.323Z,26.73
2019-04-05T15:07:59.095Z,23.00
2019-04-05T15:10:30.195Z,20.33
2019-04-05T15:13:01.992Z,23.63
2019-04-05T15:15:33.550Z,24.13
2019-04-05T15:18:05.229Z,19.23
2019-04-05T15:20:37.276Z,25.57
2019-04-05T15:23:09.542Z,19.53
2019-04-05T15:25:42.190Z,24.53
2019-04-05T15:28:12.333Z,19.47
2019-04-05T15:30:42.661Z,22.20
2019-04-05T15:33:12.913Z,17.57
2019-04-05T15:35:44.091Z,22.70
2019-04-05T15:38:14.930Z,17.43
2019-04-05T15:40:45.565Z,22.53
2019-04-05T15:43:15.345Z,20.63
2019-04-05T15:45:48.435Z,22.77
2019-04-05T15:48:20.495Z,20.57
2019-04-05T15:50:55.586Z,22.03
2019-04-05T15:53:24.729Z,20.63
2019-04-05T15:55:54.967Z,26.43
2019-04-05T15:58:27.875Z,26.97
2019-04-05T16:00:59.219Z,28.97
2019-04-05T16:03:32.124Z,25.27
2019-04-05T16:06:02.113Z,29.23
2019-04-05T16:08:32.969Z,25.27
2019-04-05T16:11:05.578Z,27.23
2019-04-05T16:13:37.497Z,29.90
2019-04-05T16:16:07.809Z,23.70
2019-04-05T16:18:38.099Z,29.93
2019-04-05T16:21:08.847Z,24.10
2019-04-05T16:23:40.505Z,27.30
2019-04-05T16:26:12.359Z,28.37
2019-04-05T16:28:43.604Z,30.17
2019-04-05T16:31:14.817Z,24.03
2019-04-05T16:33:44.717Z,27.83
2019-04-05T16:36:16.509Z,25.70
2019-04-05T16:38:47.631Z,24.80
2019-04-05T16:41:18.364Z,28.97
2019-04-05T16:43:49.590Z,30.17
2019-04-05T16:46:22.397Z,32.23
2019-04-05T16:48:53.138Z,29.63
2019-04-05T16:51:24.149Z,24.00
2019-04-05T16:54:05.076Z,25.23
2019-04-05T16:56:36.097Z,27.57
2019-04-05T16:59:07.149Z,23.70
2019-04-05T17:01:38.307Z,23.73
2019-04-05T17:04:09.438Z,24.00
2019-04-05T17:06:40.277Z,22.83
2019-04-05T17:09:11.300Z,22.73
2019-04-05T17:11:42.713Z,20.67
2019-04-05T17:14:13.557Z,23.90
2019-04-05T17:16:45.048Z,22.47
2019-04-05T17:19:15.678Z,25.07
2019-04-05T17:21:47.516Z,23.77
2019-04-05T17:24:18.233Z,20.83
2019-04-05T17:26:48.852Z,24.43
2019-04-05T17:29:19.763Z,23.37
2019-04-05T17:31:51.506Z,20.47
2019-04-05T17:34:21.586Z,26.57
2019-04-05T17:36:52.726Z,24.33
2019-04-05T17:39:25.672Z,28.17
2019-04-05T17:41:58.585Z,27.53
2019-04-05T17:44:29.689Z,24.20
2019-04-05T17:47:00.522Z,27.87
2019-04-05T17:49:34.191Z,22.73
2019-04-05T17:52:09.299Z,24.60
2019-04-05T17:54:40.754Z,25.13
2019-04-05T17:57:11.783Z,22.90
2019-04-05T17:59:42.803Z,25.93
2019-04-05T18:02:15.215Z,26.83
2019-04-05T18:04:45.915Z,29.70
2019-04-05T18:07:15.982Z,28.57
2019-04-05T18:09:48.816Z,38.80
2019-04-05T18:12:20.101Z,33.73
2019-04-05T18:14:50.337Z,29.63
2019-04-05T18:17:20.236Z,33.60
2019-04-05T18:19:49.552Z,38.73
2019-04-05T18:22:18.981Z,35.87
2019-04-05T18:24:48.319Z,28.97
2019-04-05T18:27:18.211Z,34.60
2019-04-05T18:29:47.185Z,35.97
2019-04-05T18:32:18.987Z,30.93
2019-04-05T18:34:49.137Z,33.60
2019-04-05T18:37:19.088Z,31.83
2019-04-05T18:39:50.201Z,38.67
2019-04-05T18:42:21.178Z,33.60
2019-04-05T18:44:52.046Z,41.57
2019-04-05T18:47:22.270Z,32.83
2019-04-05T18:50:02.909Z,39.90
2019-04-05T18:52:25.860Z,46.73
2019-04-05T18:54:58.940Z,45.57
2019-04-05T18:57:30.637Z,47.03
2019-04-05T19:00:01.723Z,36.90
2019-04-05T19:02:42.886Z,49.00
2019-04-05T19:05:13.965Z,44.27
2019-04-05T19:07:44.110Z,49.90
2019-04-05T19:10:14.109Z,39.90
2019-04-05T19:12:45.174Z,49.87
2019-04-05T19:15:17.742Z,38.23
2019-04-05T19:17:47.646Z,48.47
2019-04-05T19:20:27.413Z,46.03
2019-04-05T19:23:00.268Z,46.40
2019-04-05T19:25:32.020Z,48.10
2019-04-05T19:28:01.776Z,47.23
2019-04-05T19:48:30.881Z,45.90
2019-04-05T19:50:56.569Z,47.20
2019-04-05T19:53:26.821Z,46.43
2019-04-05T19:55:56.709Z,45.23
2019-04-05T19:58:30.081Z,45.53
2019-04-05T20:01:01.010Z,50.80
2019-04-05T20:03:32.190Z,44.27
2019-04-05T20:06:05.136Z,36.77
2019-04-05T20:08:37.774Z,50.03
2019-04-05T20:11:07.914Z,46.33
2019-04-05T20:13:37.807Z,41.63
2019-04-05T20:16:09.686Z,44.27
2019-04-05T20:18:40.381Z,49.40
2019-04-05T20:21:11.035Z,46.70
2019-04-05T20:23:47.458Z,49.43
2019-04-05T20:26:14.029Z,47.43
2019-04-05T20:28:45.154Z,39.27
2019-04-05T20:31:15.025Z,52.80
2019-04-05T20:33:46.044Z,49.13
2019-04-05T20:36:16.882Z,40.17
2019-04-05T20:38:46.959Z,46.30
2019-04-05T20:41:18.125Z,52.43
2019-04-05T20:43:50.649Z,39.80
2019-04-05T20:46:20.789Z,53.57
2019-04-05T20:48:51.552Z,52.63
2019-04-05T20:51:21.842Z,47.83
2019-04-05T20:53:53.982Z,53.53
2019-04-05T20:56:24.716Z,45.73
2019-04-05T20:58:55.654Z,55.27
2019-04-05T21:01:26.695Z,56.43
2019-04-05T21:03:58.879Z,51.33
2019-04-05T21:06:33.158Z,49.33
2019-04-05T21:09:05.412Z,42.53
2019-04-05T21:11:35.297Z,50.73
2019-04-05T21:14:06.988Z,57.10
2019-04-05T21:16:38.646Z,47.40
2019-04-05T21:19:09.567Z,55.00
2019-04-05T21:21:41.238Z,51.43
2019-04-05T21:24:11.390Z,42.30
2019-04-05T21:26:42.226Z,52.40
2019-04-05T21:29:12.005Z,46.00
2019-04-05T21:31:43.870Z,51.87
2019-04-05T21:34:14.665Z,57.17
2019-04-05T21:36:46.445Z,52.10
2019-04-05T21:39:17.685Z,52.63
2019-04-05T21:41:47.891Z,51.90
2019-04-05T21:44:18.651Z,54.57
2019-04-05T21:46:48.403Z,54.23
2019-04-05T21:49:19.109Z,54.00
2019-04-05T21:51:50.075Z,55.40
2019-04-05T21:54:19.832Z,51.57
2019-04-05T21:56:50.477Z,54.50
2019-04-05T21:59:21.554Z,54.43
2019-04-05T22:01:51.865Z,47.17
2019-04-05T22:04:23.033Z,48.97
2019-04-05T22:06:54.129Z,45.30
2019-04-05T22:09:25.003Z,55.60
2019-04-05T22:11:55.717Z,55.00
2019-04-05T22:14:26.361Z,52.67
2019-04-05T22:17:00.718Z,54.27
2019-04-05T22:19:30.570Z,56.43
2019-04-05T22:22:01.637Z,59.37
2019-04-05T22:24:32.355Z,46.50
2019-04-05T22:27:03.966Z,56.13
2019-04-05T22:29:34.993Z,58.53
2019-04-05T22:32:07.633Z,54.10
2019-04-05T22:34:38.931Z,56.23
2019-04-05T22:37:08.850Z,49.77
2019-04-05T22:39:39.949Z,55.87
2019-04-05T22:42:09.980Z,60.03
2019-04-05T22:44:41.502Z,60.33
2019-04-05T22:47:14.354Z,48.23
2019-04-05T22:49:44.501Z,59.27
2019-04-05T22:52:15.338Z,62.50
2019-04-05T22:54:47.104Z,60.70
2019-04-05T22:57:18.155Z,58.77
2019-04-05T22:59:48.030Z,47.40
2019-04-05T23:02:17.809Z,60.00
2019-04-05T23:04:48.116Z,50.13
2019-04-05T23:07:21.935Z,56.87
2019-04-05T23:09:53.593Z,55.53
2019-04-05T23:12:26.164Z,61.80
2019-04-05T23:14:57.259Z,57.57
2019-04-05T23:17:27.100Z,57.20
2019-04-05T23:19:57.441Z,59.33
2019-04-05T23:22:29.810Z,65.17
2019-04-05T23:24:59.814Z,60.83
2019-04-05T23:27:29.257Z,61.93
2019-04-05T23:29:59.497Z,62.90
2019-04-05T23:32:28.616Z,63.23
2019-04-05T23:34:59.025Z,54.33
2019-04-05T23:37:30.249Z,69.17
2019-04-05T23:40:01.094Z,65.50
2019-04-05T23:42:32.248Z,53.87
2019-04-05T23:45:04.654Z,68.00
2019-04-05T23:47:37.036Z,69.80
2019-04-05T23:50:06.894Z,66.10
2019-04-05T23:52:38.793Z,57.07
2019-04-05T23:55:08.961Z,72.10
2019-04-05T23:57:39.707Z,68.27
